sensor_id;sensor_type;location;lat;lon;timestamp;temperature;humidity
8709;DHT22;4391;48.678;9.280;2023-05-07T00:00:45;12.50;93.60
8709;DHT22;4391;48.678;9.280;2023-05-07T00:03:13;12.50;93.90
8709;DHT22;4391;48.678;9.280;2023-05-07T00:05:40;12.40;93.80
8709;DHT22;4391;48.678;9.280;2023-05-07T00:08:07;12.40;95.60
8709;DHT22;4391;48.678;9.280;2023-05-07T00:10:33;12.40;95.90
8709;DHT22;4391;48.678;9.280;2023-05-07T00:13:00;12.40;96.00
8709;DHT22;4391;48.678;9.280;2023-05-07T00:15:27;12.40;91.60
8709;DHT22;4391;48.678;9.280;2023-05-07T00:17:55;12.40;88.50
8709;DHT22;4391;48.678;9.280;2023-05-07T00:20:24;12.40;88.50
8709;DHT22;4391;48.678;9.280;2023-05-07T00:22:51;12.40;92.30
8709;DHT22;4391;48.678;9.280;2023-05-07T00:25:18;12.40;93.70
8709;DHT22;4391;48.678;9.280;2023-05-07T00:27:46;12.50;78.30
8709;DHT22;4391;48.678;9.280;2023-05-07T00:30:13;12.50;87.10
8709;DHT22;4391;48.678;9.280;2023-05-07T00:32:40;12.50;89.10
8709;DHT22;4391;48.678;9.280;2023-05-07T00:35:08;12.40;91.20
8709;DHT22;4391;48.678;9.280;2023-05-07T00:37:36;12.40;94.50
8709;DHT22;4391;48.678;9.280;2023-05-07T00:40:03;12.40;94.00
8709;DHT22;4391;48.678;9.280;2023-05-07T00:42:32;12.40;94.90
8709;DHT22;4391;48.678;9.280;2023-05-07T00:44:59;12.40;93.40
8709;DHT22;4391;48.678;9.280;2023-05-07T00:47:26;12.40;95.30
8709;DHT22;4391;48.678;9.280;2023-05-07T00:49:53;12.30;95.80
8709;DHT22;4391;48.678;9.280;2023-05-07T00:52:22;12.30;99.90
8709;DHT22;4391;48.678;9.280;2023-05-07T00:54:52;12.30;99.90
8709;DHT22;4391;48.678;9.280;2023-05-07T00:57:21;12.30;99.90
8709;DHT22;4391;48.678;9.280;2023-05-07T00:59:48;12.20;99.90
8709;DHT22;4391;48.678;9.280;2023-05-07T01:02:16;12.20;99.90
8709;DHT22;4391;48.678;9.280;2023-05-07T01:04:43;12.20;99.90
8709;DHT22;4391;48.678;9.280;2023-05-07T01:07:11;12.20;99.90
8709;DHT22;4391;48.678;9.280;2023-05-07T01:09:37;12.20;99.90
8709;DHT22;4391;48.678;9.280;2023-05-07T01:12:07;12.20;99.90
8709;DHT22;4391;48.678;9.280;2023-05-07T01:14:34;12.10;99.90
8709;DHT22;4391;48.678;9.280;2023-05-07T01:17:01;12.10;99.90
8709;DHT22;4391;48.678;9.280;2023-05-07T01:19:29;12.10;99.90
8709;DHT22;4391;48.678;9.280;2023-05-07T01:22:02;12.10;99.90
8709;DHT22;4391;48.678;9.280;2023-05-07T01:24:32;12.00;99.90
8709;DHT22;4391;48.678;9.280;2023-05-07T01:26:59;12.00;99.90
8709;DHT22;4391;48.678;9.280;2023-05-07T01:29:27;12.00;99.90
8709;DHT22;4391;48.678;9.280;2023-05-07T01:31:54;12.00;99.90
8709;DHT22;4391;48.678;9.280;2023-05-07T01:34:25;11.90;99.90
8709;DHT22;4391;48.678;9.280;2023-05-07T01:36:53;11.90;99.90
8709;DHT22;4391;48.678;9.280;2023-05-07T01:39:20;12.00;99.90
8709;DHT22;4391;48.678;9.280;2023-05-07T01:41:49;11.90;99.90
8709;DHT22;4391;48.678;9.280;2023-05-07T01:44:16;11.90;99.90
8709;DHT22;4391;48.678;9.280;2023-05-07T01:46:45;11.80;99.90
8709;DHT22;4391;48.678;9.280;2023-05-07T01:49:12;11.80;99.90
8709;DHT22;4391;48.678;9.280;2023-05-07T01:51:40;11.80;99.90
8709;DHT22;4391;48.678;9.280;2023-05-07T01:54:07;11.70;99.90
8709;DHT22;4391;48.678;9.280;2023-05-07T01:56:34;11.80;99.90
8709;DHT22;4391;48.678;9.280;2023-05-07T01:59:02;11.80;99.90
8709;DHT22;4391;48.678;9.280;2023-05-07T02:01:29;11.80;99.90
8709;DHT22;4391;48.678;9.280;2023-05-07T02:03:56;11.70;99.90
8709;DHT22;4391;48.678;9.280;2023-05-07T02:06:22;11.70;99.90
8709;DHT22;4391;48.678;9.280;2023-05-07T02:08:49;11.70;99.90
8709;DHT22;4391;48.678;9.280;2023-05-07T02:11:16;11.70;99.90
8709;DHT22;4391;48.678;9.280;2023-05-07T02:13:43;11.70;99.90
8709;DHT22;4391;48.678;9.280;2023-05-07T02:16:11;11.60;99.90
8709;DHT22;4391;48.678;9.280;2023-05-07T02:18:40;11.60;99.90
8709;DHT22;4391;48.678;9.280;2023-05-07T02:21:07;11.60;99.90
8709;DHT22;4391;48.678;9.280;2023-05-07T02:23:34;11.60;99.90
8709;DHT22;4391;48.678;9.280;2023-05-07T02:26:01;11.60;99.90
8709;DHT22;4391;48.678;9.280;2023-05-07T02:28:27;11.50;99.90
8709;DHT22;4391;48.678;9.280;2023-05-07T02:30:54;11.40;99.90
8709;DHT22;4391;48.678;9.280;2023-05-07T02:33:25;11.40;99.90
8709;DHT22;4391;48.678;9.280;2023-05-07T02:35:52;11.40;99.90
8709;DHT22;4391;48.678;9.280;2023-05-07T02:38:18;11.40;99.90
8709;DHT22;4391;48.678;9.280;2023-05-07T02:40:45;11.30;99.90
8709;DHT22;4391;48.678;9.280;2023-05-07T02:43:12;11.30;99.90
8709;DHT22;4391;48.678;9.280;2023-05-07T02:45:39;11.30;99.90
8709;DHT22;4391;48.678;9.280;2023-05-07T02:48:06;11.20;99.90
8709;DHT22;4391;48.678;9.280;2023-05-07T02:50:34;11.20;99.90
8709;DHT22;4391;48.678;9.280;2023-05-07T02:53:01;11.20;99.90
8709;DHT22;4391;48.678;9.280;2023-05-07T02:55:28;11.20;99.90
8709;DHT22;4391;48.678;9.280;2023-05-07T02:57:55;11.20;99.90
8709;DHT22;4391;48.678;9.280;2023-05-07T03:00:22;11.20;99.90
8709;DHT22;4391;48.678;9.280;2023-05-07T03:02:49;11.20;99.90
8709;DHT22;4391;48.678;9.280;2023-05-07T03:05:16;11.20;99.90
8709;DHT22;4391;48.678;9.280;2023-05-07T03:07:44;11.10;99.90
8709;DHT22;4391;48.678;9.280;2023-05-07T03:10:11;11.00;99.90
8709;DHT22;4391;48.678;9.280;2023-05-07T03:12:38;11.00;99.90
8709;DHT22;4391;48.678;9.280;2023-05-07T03:15:06;10.90;99.90
8709;DHT22;4391;48.678;9.280;2023-05-07T03:17:33;10.80;99.90
8709;DHT22;4391;48.678;9.280;2023-05-07T03:20:00;10.80;99.90
8709;DHT22;4391;48.678;9.280;2023-05-07T03:22:27;10.70;99.90
8709;DHT22;4391;48.678;9.280;2023-05-07T03:24:55;10.70;99.90
8709;DHT22;4391;48.678;9.280;2023-05-07T03:27:22;10.70;99.90
8709;DHT22;4391;48.678;9.280;2023-05-07T03:29:48;10.70;99.90
8709;DHT22;4391;48.678;9.280;2023-05-07T03:32:15;10.70;99.90
8709;DHT22;4391;48.678;9.280;2023-05-07T03:34:42;10.60;99.90
8709;DHT22;4391;48.678;9.280;2023-05-07T03:37:09;10.60;99.90
8709;DHT22;4391;48.678;9.280;2023-05-07T03:39:36;10.50;99.90
8709;DHT22;4391;48.678;9.280;2023-05-07T03:42:04;10.50;99.90
8709;DHT22;4391;48.678;9.280;2023-05-07T03:44:31;10.50;99.90
8709;DHT22;4391;48.678;9.280;2023-05-07T03:46:58;10.50;99.90
8709;DHT22;4391;48.678;9.280;2023-05-07T03:49:24;10.50;99.90
8709;DHT22;4391;48.678;9.280;2023-05-07T03:51:51;10.40;99.90
8709;DHT22;4391;48.678;9.280;2023-05-07T03:54:18;10.40;99.90
8709;DHT22;4391;48.678;9.280;2023-05-07T03:56:45;10.40;99.90
8709;DHT22;4391;48.678;9.280;2023-05-07T03:59:13;10.30;99.90
8709;DHT22;4391;48.678;9.280;2023-05-07T04:01:40;10.30;99.90
8709;DHT22;4391;48.678;9.280;2023-05-07T04:04:07;10.30;99.90
8709;DHT22;4391;48.678;9.280;2023-05-07T04:06:34;10.30;99.90
8709;DHT22;4391;48.678;9.280;2023-05-07T04:09:01;10.30;99.90
8709;DHT22;4391;48.678;9.280;2023-05-07T04:11:27;10.20;99.90
8709;DHT22;4391;48.678;9.280;2023-05-07T04:13:54;10.20;99.90
8709;DHT22;4391;48.678;9.280;2023-05-07T04:16:22;10.20;99.90
8709;DHT22;4391;48.678;9.280;2023-05-07T04:18:49;10.20;99.90
8709;DHT22;4391;48.678;9.280;2023-05-07T04:21:17;10.20;99.90
8709;DHT22;4391;48.678;9.280;2023-05-07T04:23:44;10.30;99.90
8709;DHT22;4391;48.678;9.280;2023-05-07T04:26:11;10.20;99.90
8709;DHT22;4391;48.678;9.280;2023-05-07T04:28:38;10.20;99.90
8709;DHT22;4391;48.678;9.280;2023-05-07T04:31:06;10.30;99.90
8709;DHT22;4391;48.678;9.280;2023-05-07T04:33:34;10.30;99.90
8709;DHT22;4391;48.678;9.280;2023-05-07T04:36:01;10.40;99.90
8709;DHT22;4391;48.678;9.280;2023-05-07T04:38:29;10.50;99.90
8709;DHT22;4391;48.678;9.280;2023-05-07T04:40:57;10.50;99.90
8709;DHT22;4391;48.678;9.280;2023-05-07T04:43:23;10.50;99.90
8709;DHT22;4391;48.678;9.280;2023-05-07T04:45:51;10.40;99.90
8709;DHT22;4391;48.678;9.280;2023-05-07T04:48:18;10.50;99.90
8709;DHT22;4391;48.678;9.280;2023-05-07T04:50:48;10.50;99.90
8709;DHT22;4391;48.678;9.280;2023-05-07T04:53:16;10.50;99.90
8709;DHT22;4391;48.678;9.280;2023-05-07T04:55:43;10.60;99.90
8709;DHT22;4391;48.678;9.280;2023-05-07T04:58:10;10.60;99.90
8709;DHT22;4391;48.678;9.280;2023-05-07T05:00:37;10.70;99.90
8709;DHT22;4391;48.678;9.280;2023-05-07T05:03:05;10.70;99.90
8709;DHT22;4391;48.678;9.280;2023-05-07T05:05:32;10.80;99.90
8709;DHT22;4391;48.678;9.280;2023-05-07T05:08:00;10.80;99.90
8709;DHT22;4391;48.678;9.280;2023-05-07T05:10:27;10.90;99.90
8709;DHT22;4391;48.678;9.280;2023-05-07T05:12:54;10.90;99.90
8709;DHT22;4391;48.678;9.280;2023-05-07T05:15:21;11.00;99.90
8709;DHT22;4391;48.678;9.280;2023-05-07T05:17:48;11.10;99.90
8709;DHT22;4391;48.678;9.280;2023-05-07T05:20:15;11.20;99.90
8709;DHT22;4391;48.678;9.280;2023-05-07T05:22:42;11.40;99.90
8709;DHT22;4391;48.678;9.280;2023-05-07T05:25:10;11.60;99.90
8709;DHT22;4391;48.678;9.280;2023-05-07T05:27:37;11.70;99.90
8709;DHT22;4391;48.678;9.280;2023-05-07T05:30:05;11.90;99.90
8709;DHT22;4391;48.678;9.280;2023-05-07T05:32:32;12.10;99.90
8709;DHT22;4391;48.678;9.280;2023-05-07T05:34:58;12.20;99.90
8709;DHT22;4391;48.678;9.280;2023-05-07T05:37:25;12.40;95.80
8709;DHT22;4391;48.678;9.280;2023-05-07T05:39:52;12.70;83.20
8709;DHT22;4391;48.678;9.280;2023-05-07T05:42:21;12.90;70.80
8709;DHT22;4391;48.678;9.280;2023-05-07T05:44:48;13.00;52.20
8709;DHT22;4391;48.678;9.280;2023-05-07T05:47:15;13.30;40.40
8709;DHT22;4391;48.678;9.280;2023-05-07T05:49:42;13.50;33.90
8709;DHT22;4391;48.678;9.280;2023-05-07T05:52:09;13.70;1.00
8709;DHT22;4391;48.678;9.280;2023-05-07T05:54:36;14.10;1.00
8709;DHT22;4391;48.678;9.280;2023-05-07T05:57:04;14.50;1.00
8709;DHT22;4391;48.678;9.280;2023-05-07T05:59:32;15.10;1.00
8709;DHT22;4391;48.678;9.280;2023-05-07T06:01:59;15.50;99.90
8709;DHT22;4391;48.678;9.280;2023-05-07T06:04:26;16.10;1.00
8709;DHT22;4391;48.678;9.280;2023-05-07T06:06:53;16.30;99.90
8709;DHT22;4391;48.678;9.280;2023-05-07T06:09:20;16.50;99.90
8709;DHT22;4391;48.678;9.280;2023-05-07T06:11:46;16.80;1.00
8709;DHT22;4391;48.678;9.280;2023-05-07T06:14:16;17.30;1.00
8709;DHT22;4391;48.678;9.280;2023-05-07T06:16:44;17.60;99.90
8709;DHT22;4391;48.678;9.280;2023-05-07T06:19:11;18.00;99.90
8709;DHT22;4391;48.678;9.280;2023-05-07T06:21:39;18.30;99.90
8709;DHT22;4391;48.678;9.280;2023-05-07T06:24:07;18.20;48.80
8709;DHT22;4391;48.678;9.280;2023-05-07T06:26:33;18.10;99.90
8709;DHT22;4391;48.678;9.280;2023-05-07T06:29:00;18.10;99.90
8709;DHT22;4391;48.678;9.280;2023-05-07T06:31:29;18.20;99.90
8709;DHT22;4391;48.678;9.280;2023-05-07T06:33:58;18.50;22.60
8709;DHT22;4391;48.678;9.280;2023-05-07T06:36:25;18.70;1.00
8709;DHT22;4391;48.678;9.280;2023-05-07T06:38:52;18.80;1.00
8709;DHT22;4391;48.678;9.280;2023-05-07T06:41:20;19.10;1.00
8709;DHT22;4391;48.678;9.280;2023-05-07T06:43:47;19.30;1.00
8709;DHT22;4391;48.678;9.280;2023-05-07T06:46:13;19.60;1.00
8709;DHT22;4391;48.678;9.280;2023-05-07T06:48:41;19.90;1.00
8709;DHT22;4391;48.678;9.280;2023-05-07T06:51:09;19.80;1.00
8709;DHT22;4391;48.678;9.280;2023-05-07T06:53:35;19.90;1.00
8709;DHT22;4391;48.678;9.280;2023-05-07T06:56:02;19.90;1.00
8709;DHT22;4391;48.678;9.280;2023-05-07T06:58:30;19.90;1.00
8709;DHT22;4391;48.678;9.280;2023-05-07T07:00:56;19.90;1.00
8709;DHT22;4391;48.678;9.280;2023-05-07T07:03:23;19.90;1.00
8709;DHT22;4391;48.678;9.280;2023-05-07T07:05:52;19.90;1.00
8709;DHT22;4391;48.678;9.280;2023-05-07T07:08:21;19.90;1.00
8709;DHT22;4391;48.678;9.280;2023-05-07T07:10:48;19.90;1.00
8709;DHT22;4391;48.678;9.280;2023-05-07T07:13:15;19.80;1.00
8709;DHT22;4391;48.678;9.280;2023-05-07T07:15:43;20.00;1.00
8709;DHT22;4391;48.678;9.280;2023-05-07T07:18:09;20.20;1.00
8709;DHT22;4391;48.678;9.280;2023-05-07T07:20:36;20.40;1.00
8709;DHT22;4391;48.678;9.280;2023-05-07T07:23:03;20.50;1.00
8709;DHT22;4391;48.678;9.280;2023-05-07T07:25:31;20.80;1.00
8709;DHT22;4391;48.678;9.280;2023-05-07T07:27:58;20.70;1.00
8709;DHT22;4391;48.678;9.280;2023-05-07T07:30:25;20.90;1.00
8709;DHT22;4391;48.678;9.280;2023-05-07T07:32:52;21.10;1.00
8709;DHT22;4391;48.678;9.280;2023-05-07T07:35:19;21.30;99.90
8709;DHT22;4391;48.678;9.280;2023-05-07T07:37:47;21.40;99.90
8709;DHT22;4391;48.678;9.280;2023-05-07T07:40:15;21.70;99.90
8709;DHT22;4391;48.678;9.280;2023-05-07T07:42:43;22.20;99.90
8709;DHT22;4391;48.678;9.280;2023-05-07T07:45:11;22.20;99.90
8709;DHT22;4391;48.678;9.280;2023-05-07T07:47:38;22.50;99.90
8709;DHT22;4391;48.678;9.280;2023-05-07T07:50:06;22.60;99.90
8709;DHT22;4391;48.678;9.280;2023-05-07T07:52:33;22.70;99.90
8709;DHT22;4391;48.678;9.280;2023-05-07T07:55:00;22.80;99.90
8709;DHT22;4391;48.678;9.280;2023-05-07T07:57:27;22.90;99.90
8709;DHT22;4391;48.678;9.280;2023-05-07T07:59:56;22.80;99.90
8709;DHT22;4391;48.678;9.280;2023-05-07T08:02:23;23.10;99.90
8709;DHT22;4391;48.678;9.280;2023-05-07T08:04:50;23.20;99.90
8709;DHT22;4391;48.678;9.280;2023-05-07T08:07:17;23.30;99.90
8709;DHT22;4391;48.678;9.280;2023-05-07T08:09:46;23.40;99.90
8709;DHT22;4391;48.678;9.280;2023-05-07T08:12:15;23.70;99.90
8709;DHT22;4391;48.678;9.280;2023-05-07T08:14:42;23.80;99.90
8709;DHT22;4391;48.678;9.280;2023-05-07T08:17:10;24.00;99.90
8709;DHT22;4391;48.678;9.280;2023-05-07T08:19:37;23.80;99.90
8709;DHT22;4391;48.678;9.280;2023-05-07T08:22:03;23.50;99.90
8709;DHT22;4391;48.678;9.280;2023-05-07T08:24:31;23.50;99.90
8709;DHT22;4391;48.678;9.280;2023-05-07T08:26:57;23.80;99.90
8709;DHT22;4391;48.678;9.280;2023-05-07T08:29:24;24.20;99.90
8709;DHT22;4391;48.678;9.280;2023-05-07T08:31:51;24.30;99.90
8709;DHT22;4391;48.678;9.280;2023-05-07T08:34:20;24.40;99.90
8709;DHT22;4391;48.678;9.280;2023-05-07T08:36:47;24.40;99.90
8709;DHT22;4391;48.678;9.280;2023-05-07T08:39:15;24.80;99.90
8709;DHT22;4391;48.678;9.280;2023-05-07T08:41:44;25.10;99.90
8709;DHT22;4391;48.678;9.280;2023-05-07T08:44:12;25.40;99.90
8709;DHT22;4391;48.678;9.280;2023-05-07T08:46:45;25.80;99.90
8709;DHT22;4391;48.678;9.280;2023-05-07T08:49:13;25.70;99.90
8709;DHT22;4391;48.678;9.280;2023-05-07T08:51:42;25.80;99.90
8709;DHT22;4391;48.678;9.280;2023-05-07T08:54:10;26.10;99.90
8709;DHT22;4391;48.678;9.280;2023-05-07T08:56:38;26.20;99.90
8709;DHT22;4391;48.678;9.280;2023-05-07T08:59:05;26.10;99.90
8709;DHT22;4391;48.678;9.280;2023-05-07T09:01:32;26.20;99.90
8709;DHT22;4391;48.678;9.280;2023-05-07T09:04:01;26.30;99.90
8709;DHT22;4391;48.678;9.280;2023-05-07T09:06:28;26.50;99.90
8709;DHT22;4391;48.678;9.280;2023-05-07T09:08:56;26.90;99.90
8709;DHT22;4391;48.678;9.280;2023-05-07T09:11:26;27.10;99.90
8709;DHT22;4391;48.678;9.280;2023-05-07T09:13:54;27.20;99.90
8709;DHT22;4391;48.678;9.280;2023-05-07T09:16:22;27.40;99.90
8709;DHT22;4391;48.678;9.280;2023-05-07T09:18:51;27.70;99.90
8709;DHT22;4391;48.678;9.280;2023-05-07T09:21:19;27.40;99.90
8709;DHT22;4391;48.678;9.280;2023-05-07T09:23:48;27.50;99.90
8709;DHT22;4391;48.678;9.280;2023-05-07T09:26:17;27.50;99.90
8709;DHT22;4391;48.678;9.280;2023-05-07T09:28:44;27.20;99.90
8709;DHT22;4391;48.678;9.280;2023-05-07T09:31:12;26.60;99.90
8709;DHT22;4391;48.678;9.280;2023-05-07T09:33:39;26.00;99.90
8709;DHT22;4391;48.678;9.280;2023-05-07T09:36:07;26.30;99.90
8709;DHT22;4391;48.678;9.280;2023-05-07T09:38:35;26.90;99.90
8709;DHT22;4391;48.678;9.280;2023-05-07T09:41:03;26.60;99.90
8709;DHT22;4391;48.678;9.280;2023-05-07T09:43:33;26.50;99.90
8709;DHT22;4391;48.678;9.280;2023-05-07T09:46:03;26.20;99.90
8709;DHT22;4391;48.678;9.280;2023-05-07T09:48:36;26.10;99.90
8709;DHT22;4391;48.678;9.280;2023-05-07T09:51:06;25.90;99.90
8709;DHT22;4391;48.678;9.280;2023-05-07T09:53:35;26.10;99.90
8709;DHT22;4391;48.678;9.280;2023-05-07T09:56:03;26.40;99.90
8709;DHT22;4391;48.678;9.280;2023-05-07T09:58:30;26.90;99.90
8709;DHT22;4391;48.678;9.280;2023-05-07T10:01:00;27.00;99.90
8709;DHT22;4391;48.678;9.280;2023-05-07T10:03:29;27.10;99.90
8709;DHT22;4391;48.678;9.280;2023-05-07T10:05:58;27.50;99.90
8709;DHT22;4391;48.678;9.280;2023-05-07T10:08:25;28.00;99.90
8709;DHT22;4391;48.678;9.280;2023-05-07T10:10:52;28.60;99.90
8709;DHT22;4391;48.678;9.280;2023-05-07T10:13:19;28.80;99.90
8709;DHT22;4391;48.678;9.280;2023-05-07T10:15:47;28.80;99.90
8709;DHT22;4391;48.678;9.280;2023-05-07T10:18:15;28.50;99.90
8709;DHT22;4391;48.678;9.280;2023-05-07T10:20:43;28.90;99.90
8709;DHT22;4391;48.678;9.280;2023-05-07T10:23:14;29.20;99.90
8709;DHT22;4391;48.678;9.280;2023-05-07T10:25:45;29.10;99.90
8709;DHT22;4391;48.678;9.280;2023-05-07T10:28:13;29.40;99.90
8709;DHT22;4391;48.678;9.280;2023-05-07T10:30:49;29.90;99.90
8709;DHT22;4391;48.678;9.280;2023-05-07T10:33:27;29.20;99.90
8709;DHT22;4391;48.678;9.280;2023-05-07T10:35:58;29.40;99.90
8709;DHT22;4391;48.678;9.280;2023-05-07T10:38:27;29.70;99.90
8709;DHT22;4391;48.678;9.280;2023-05-07T10:40:54;29.60;99.90
8709;DHT22;4391;48.678;9.280;2023-05-07T10:43:21;29.50;99.90
8709;DHT22;4391;48.678;9.280;2023-05-07T10:46:10;29.10;99.90
8709;DHT22;4391;48.678;9.280;2023-05-07T10:49:09;29.70;99.90
8709;DHT22;4391;48.678;9.280;2023-05-07T10:51:38;30.40;99.90
8709;DHT22;4391;48.678;9.280;2023-05-07T10:54:23;31.10;99.90
8709;DHT22;4391;48.678;9.280;2023-05-07T10:56:50;31.60;99.90
8709;DHT22;4391;48.678;9.280;2023-05-07T10:59:36;31.70;99.90
8709;DHT22;4391;48.678;9.280;2023-05-07T11:02:09;31.60;99.90
8709;DHT22;4391;48.678;9.280;2023-05-07T11:04:38;32.20;99.90
8709;DHT22;4391;48.678;9.280;2023-05-07T11:07:24;33.00;99.90
8709;DHT22;4391;48.678;9.280;2023-05-07T11:09:57;33.50;99.90
8709;DHT22;4391;48.678;9.280;2023-05-07T11:12:49;33.30;99.90
8709;DHT22;4391;48.678;9.280;2023-05-07T11:15:38;32.30;99.90
8709;DHT22;4391;48.678;9.280;2023-05-07T11:18:05;31.20;99.90
8709;DHT22;4391;48.678;9.280;2023-05-07T11:20:53;31.10;99.90
8709;DHT22;4391;48.678;9.280;2023-05-07T11:23:57;31.70;99.90
8709;DHT22;4391;48.678;9.280;2023-05-07T11:26:25;32.20;99.90
8709;DHT22;4391;48.678;9.280;2023-05-07T11:28:52;32.00;99.90
8709;DHT22;4391;48.678;9.280;2023-05-07T11:31:24;32.40;99.90
8709;DHT22;4391;48.678;9.280;2023-05-07T11:33:52;32.90;99.90
8709;DHT22;4391;48.678;9.280;2023-05-07T11:36:22;33.30;99.90
8709;DHT22;4391;48.678;9.280;2023-05-07T11:38:49;34.10;99.90
8709;DHT22;4391;48.678;9.280;2023-05-07T11:41:16;35.10;99.90
8709;DHT22;4391;48.678;9.280;2023-05-07T11:43:56;35.40;99.90
8709;DHT22;4391;48.678;9.280;2023-05-07T11:46:23;35.40;99.90
8709;DHT22;4391;48.678;9.280;2023-05-07T11:48:50;35.30;99.90
8709;DHT22;4391;48.678;9.280;2023-05-07T11:51:22;34.70;99.90
8709;DHT22;4391;48.678;9.280;2023-05-07T11:53:50;33.80;99.90
8709;DHT22;4391;48.678;9.280;2023-05-07T11:56:18;32.90;99.90
8709;DHT22;4391;48.678;9.280;2023-05-07T11:58:46;32.50;99.90
8709;DHT22;4391;48.678;9.280;2023-05-07T12:01:14;31.50;99.90
8709;DHT22;4391;48.678;9.280;2023-05-07T12:03:43;30.40;99.90
8709;DHT22;4391;48.678;9.280;2023-05-07T12:06:12;29.60;99.90
8709;DHT22;4391;48.678;9.280;2023-05-07T12:08:41;28.60;99.90
8709;DHT22;4391;48.678;9.280;2023-05-07T12:11:09;27.90;99.90
8709;DHT22;4391;48.678;9.280;2023-05-07T12:13:37;27.60;99.90
8709;DHT22;4391;48.678;9.280;2023-05-07T12:16:05;27.40;99.90
8709;DHT22;4391;48.678;9.280;2023-05-07T12:18:33;27.20;99.90
8709;DHT22;4391;48.678;9.280;2023-05-07T12:21:05;26.80;99.90
8709;DHT22;4391;48.678;9.280;2023-05-07T12:23:33;26.60;99.90
8709;DHT22;4391;48.678;9.280;2023-05-07T12:26:02;26.00;99.90
8709;DHT22;4391;48.678;9.280;2023-05-07T12:28:29;25.60;99.90
8709;DHT22;4391;48.678;9.280;2023-05-07T12:30:57;24.70;99.90
8709;DHT22;4391;48.678;9.280;2023-05-07T12:33:25;24.00;99.90
8709;DHT22;4391;48.678;9.280;2023-05-07T12:35:54;23.20;99.90
8709;DHT22;4391;48.678;9.280;2023-05-07T12:38:22;22.80;99.90
8709;DHT22;4391;48.678;9.280;2023-05-07T12:40:50;22.40;99.90
8709;DHT22;4391;48.678;9.280;2023-05-07T12:43:19;21.90;99.90
8709;DHT22;4391;48.678;9.280;2023-05-07T12:45:48;21.60;99.90
8709;DHT22;4391;48.678;9.280;2023-05-07T12:48:16;21.30;99.90
8709;DHT22;4391;48.678;9.280;2023-05-07T12:50:43;21.00;99.90
8709;DHT22;4391;48.678;9.280;2023-05-07T12:53:11;20.50;1.00
8709;DHT22;4391;48.678;9.280;2023-05-07T12:55:42;19.70;99.90
8709;DHT22;4391;48.678;9.280;2023-05-07T12:58:21;19.10;99.90
8709;DHT22;4391;48.678;9.280;2023-05-07T13:00:50;18.50;1.00
8709;DHT22;4391;48.678;9.280;2023-05-07T13:03:25;18.10;99.90
8709;DHT22;4391;48.678;9.280;2023-05-07T13:05:52;17.70;71.30
8709;DHT22;4391;48.678;9.280;2023-05-07T13:08:30;17.40;1.00
8709;DHT22;4391;48.678;9.280;2023-05-07T13:10:58;17.20;1.00
8709;DHT22;4391;48.678;9.280;2023-05-07T13:13:30;17.10;1.00
8709;DHT22;4391;48.678;9.280;2023-05-07T13:15:57;17.00;1.00
8709;DHT22;4391;48.678;9.280;2023-05-07T13:18:24;16.80;1.00
8709;DHT22;4391;48.678;9.280;2023-05-07T13:20:51;16.80;99.90
8709;DHT22;4391;48.678;9.280;2023-05-07T13:23:22;16.80;99.90
8709;DHT22;4391;48.678;9.280;2023-05-07T13:25:49;16.60;99.90
8709;DHT22;4391;48.678;9.280;2023-05-07T13:28:16;16.50;99.90
8709;DHT22;4391;48.678;9.280;2023-05-07T13:30:45;16.50;99.90
8709;DHT22;4391;48.678;9.280;2023-05-07T13:33:11;16.40;99.90
8709;DHT22;4391;48.678;9.280;2023-05-07T13:35:38;16.40;1.00
8709;DHT22;4391;48.678;9.280;2023-05-07T13:38:05;16.40;1.00
8709;DHT22;4391;48.678;9.280;2023-05-07T13:40:32;16.40;1.00
8709;DHT22;4391;48.678;9.280;2023-05-07T13:42:59;16.30;1.00
8709;DHT22;4391;48.678;9.280;2023-05-07T13:45:27;16.20;4.60
8709;DHT22;4391;48.678;9.280;2023-05-07T13:47:56;16.10;58.80
8709;DHT22;4391;48.678;9.280;2023-05-07T13:50:24;16.00;30.00
8709;DHT22;4391;48.678;9.280;2023-05-07T13:52:55;15.80;44.10
8709;DHT22;4391;48.678;9.280;2023-05-07T13:55:23;15.60;50.00
8709;DHT22;4391;48.678;9.280;2023-05-07T13:57:55;15.50;99.80
8709;DHT22;4391;48.678;9.280;2023-05-07T14:00:23;15.30;99.90
8709;DHT22;4391;48.678;9.280;2023-05-07T14:02:50;15.10;99.90
8709;DHT22;4391;48.678;9.280;2023-05-07T14:05:19;14.90;63.80
8709;DHT22;4391;48.678;9.280;2023-05-07T14:07:46;15.00;28.30
8709;DHT22;4391;48.678;9.280;2023-05-07T14:10:14;14.60;99.90
8709;DHT22;4391;48.678;9.280;2023-05-07T14:12:41;14.50;99.90
8709;DHT22;4391;48.678;9.280;2023-05-07T14:15:09;14.20;99.90
8709;DHT22;4391;48.678;9.280;2023-05-07T14:17:36;14.00;99.90
8709;DHT22;4391;48.678;9.280;2023-05-07T14:20:03;13.90;99.90
8709;DHT22;4391;48.678;9.280;2023-05-07T14:22:33;13.90;99.90
8709;DHT22;4391;48.678;9.280;2023-05-07T14:25:00;13.90;99.90
8709;DHT22;4391;48.678;9.280;2023-05-07T14:27:27;13.90;99.90
8709;DHT22;4391;48.678;9.280;2023-05-07T14:29:54;14.00;99.90
8709;DHT22;4391;48.678;9.280;2023-05-07T14:32:21;14.00;99.90
8709;DHT22;4391;48.678;9.280;2023-05-07T14:34:48;14.00;99.90
8709;DHT22;4391;48.678;9.280;2023-05-07T14:37:15;14.00;99.90
8709;DHT22;4391;48.678;9.280;2023-05-07T14:39:46;14.00;99.90
8709;DHT22;4391;48.678;9.280;2023-05-07T14:42:13;14.00;99.90
8709;DHT22;4391;48.678;9.280;2023-05-07T14:44:40;14.00;99.90
8709;DHT22;4391;48.678;9.280;2023-05-07T14:47:08;14.10;99.90
8709;DHT22;4391;48.678;9.280;2023-05-07T14:49:35;14.20;99.90
8709;DHT22;4391;48.678;9.280;2023-05-07T14:52:02;14.20;99.90
8709;DHT22;4391;48.678;9.280;2023-05-07T14:54:33;14.20;99.90
8709;DHT22;4391;48.678;9.280;2023-05-07T14:57:02;14.30;99.90
8709;DHT22;4391;48.678;9.280;2023-05-07T14:59:29;14.50;99.90
8709;DHT22;4391;48.678;9.280;2023-05-07T15:01:57;14.60;99.90
8709;DHT22;4391;48.678;9.280;2023-05-07T15:04:24;14.60;99.90
8709;DHT22;4391;48.678;9.280;2023-05-07T15:06:51;14.80;99.90
8709;DHT22;4391;48.678;9.280;2023-05-07T15:09:20;14.90;99.90
8709;DHT22;4391;48.678;9.280;2023-05-07T15:11:47;14.90;99.90
8709;DHT22;4391;48.678;9.280;2023-05-07T15:14:16;14.90;99.90
8709;DHT22;4391;48.678;9.280;2023-05-07T15:16:43;15.00;99.90
8709;DHT22;4391;48.678;9.280;2023-05-07T15:19:10;15.10;99.90
8709;DHT22;4391;48.678;9.280;2023-05-07T15:21:37;15.20;99.90
8709;DHT22;4391;48.678;9.280;2023-05-07T15:24:05;15.30;99.90
8709;DHT22;4391;48.678;9.280;2023-05-07T15:26:32;15.30;99.90
8709;DHT22;4391;48.678;9.280;2023-05-07T15:28:59;15.30;99.90
8709;DHT22;4391;48.678;9.280;2023-05-07T15:31:31;15.30;99.90
8709;DHT22;4391;48.678;9.280;2023-05-07T15:34:00;15.30;99.90
8709;DHT22;4391;48.678;9.280;2023-05-07T15:36:28;15.30;99.90
8709;DHT22;4391;48.678;9.280;2023-05-07T15:38:56;15.30;99.90
8709;DHT22;4391;48.678;9.280;2023-05-07T15:41:24;15.30;99.90
8709;DHT22;4391;48.678;9.280;2023-05-07T15:43:51;15.30;99.90
8709;DHT22;4391;48.678;9.280;2023-05-07T15:46:20;15.40;99.90
8709;DHT22;4391;48.678;9.280;2023-05-07T15:48:49;15.30;99.90
8709;DHT22;4391;48.678;9.280;2023-05-07T15:51:17;15.30;99.90
8709;DHT22;4391;48.678;9.280;2023-05-07T15:53:44;15.30;99.90
8709;DHT22;4391;48.678;9.280;2023-05-07T15:56:10;15.40;99.90
8709;DHT22;4391;48.678;9.280;2023-05-07T15:58:37;15.50;99.90
8709;DHT22;4391;48.678;9.280;2023-05-07T16:01:04;15.40;99.90
8709;DHT22;4391;48.678;9.280;2023-05-07T16:03:31;15.30;99.90
8709;DHT22;4391;48.678;9.280;2023-05-07T16:06:00;15.30;99.90
8709;DHT22;4391;48.678;9.280;2023-05-07T16:08:27;15.30;99.90
8709;DHT22;4391;48.678;9.280;2023-05-07T16:10:54;15.40;99.90